createdAt,value
2019-02-19T00:01:37.864Z,8.59
2019-02-19T00:04:08.615Z,8.59
2019-02-19T00:06:39.047Z,8.57
2019-02-19T00:09:09.472Z,8.42
2019-02-19T00:11:40.080Z,8.46
2019-02-19T00:14:10.798Z,8.45
2019-02-19T00:16:41.816Z,8.28
2019-02-19T00:19:12.243Z,8.27
2019-02-19T00:21:42.837Z,8.32
2019-02-19T00:24:13.650Z,8.16
2019-02-19T00:26:44.490Z,8.18
2019-02-19T00:29:15.242Z,8.20
2019-02-19T00:31:46.693Z,8.22
2019-02-19T00:34:16.976Z,8.21
2019-02-19T00:36:47.686Z,8.16
2019-02-19T00:39:18.158Z,8.15
2019-02-19T00:41:48.482Z,8.13
2019-02-19T00:44:18.940Z,8.11
2019-02-19T00:46:49.615Z,8.11
2019-02-19T00:49:20.084Z,8.10
2019-02-19T00:51:51.207Z,8.06
2019-02-19T00:54:21.527Z,8.04
2019-02-19T00:56:51.837Z,8.03
2019-02-19T00:59:22.669Z,8.01
2019-02-19T01:01:53.403Z,8.00
2019-02-19T01:04:23.790Z,7.91
2019-02-19T01:06:54.157Z,7.98
2019-02-19T01:09:24.444Z,8.00
2019-02-19T01:11:54.644Z,7.99
2019-02-19T01:14:24.923Z,8.01
2019-02-19T01:16:55.205Z,7.92
2019-02-19T01:19:25.676Z,7.89
2019-02-19T01:21:56.288Z,7.95
2019-02-19T01:24:26.667Z,8.02
2019-02-19T01:26:56.958Z,8.00
2019-02-19T01:29:27.491Z,7.90
2019-02-19T01:31:57.897Z,7.85
2019-02-19T01:34:28.259Z,7.81
2019-02-19T01:36:59.130Z,7.85
2019-02-19T01:39:30.531Z,7.86
2019-02-19T01:42:00.926Z,7.87
2019-02-19T01:44:31.555Z,7.92
2019-02-19T01:47:02.164Z,7.95
2019-02-19T01:49:32.730Z,7.93
2019-02-19T01:52:03.200Z,7.93
2019-02-19T01:54:33.759Z,7.99
2019-02-19T01:57:04.244Z,8.01
2019-02-19T01:59:40.829Z,8.04
2019-02-19T02:02:11.101Z,8.04
2019-02-19T02:04:41.372Z,8.06
2019-02-19T02:07:11.745Z,8.07
2019-02-19T02:09:41.958Z,8.14
2019-02-19T02:12:12.326Z,8.18
2019-02-19T02:14:43.313Z,8.15
2019-02-19T02:17:14.161Z,8.13
2019-02-19T02:19:44.690Z,8.13
2019-02-19T02:22:14.947Z,8.21
2019-02-19T02:24:45.415Z,8.20
2019-02-19T02:27:15.675Z,8.17
2019-02-19T02:29:47.228Z,8.14
2019-02-19T02:32:17.454Z,8.09
2019-02-19T02:34:47.676Z,8.06
2019-02-19T02:37:19.024Z,7.96
2019-02-19T02:39:49.393Z,8.04
2019-02-19T02:42:19.915Z,7.98
2019-02-19T02:44:51.929Z,8.06
2019-02-19T02:47:22.375Z,8.10
2019-02-19T02:49:53.701Z,8.11
2019-02-19T02:52:24.509Z,8.11
2019-02-19T02:54:54.797Z,8.07
2019-02-19T02:57:25.289Z,8.09
2019-02-19T02:59:56.228Z,8.12
2019-02-19T03:02:26.527Z,8.13
2019-02-19T03:04:57.046Z,8.12
2019-02-19T03:07:32.237Z,8.10
2019-02-19T03:10:02.770Z,8.11
2019-02-19T03:12:32.982Z,8.11
2019-02-19T03:15:03.716Z,8.09
2019-02-19T03:17:34.476Z,8.09
2019-02-19T03:20:05.021Z,8.10
2019-02-19T03:22:35.304Z,8.14
2019-02-19T03:25:07.711Z,8.17
2019-02-19T03:27:38.191Z,8.17
2019-02-19T03:30:10.244Z,8.15
2019-02-19T03:32:40.557Z,8.19
2019-02-19T03:35:10.777Z,8.19
2019-02-19T03:37:41.042Z,8.20
2019-02-19T03:40:11.461Z,8.18
2019-02-19T03:42:42.047Z,8.21
2019-02-19T03:45:13.409Z,8.19
2019-02-19T03:47:44.052Z,8.18
2019-02-19T03:50:14.614Z,8.19
2019-02-19T03:52:44.879Z,8.22
2019-02-19T03:55:15.120Z,8.22
2019-02-19T03:57:45.370Z,8.20
2019-02-19T04:00:16.785Z,8.20
2019-02-19T04:02:47.302Z,8.19
2019-02-19T04:05:17.501Z,8.16
2019-02-19T04:07:48.026Z,8.16
2019-02-19T04:10:18.557Z,8.14
2019-02-19T04:12:48.995Z,8.15
2019-02-19T04:15:19.247Z,8.15
2019-02-19T04:17:49.729Z,8.11
2019-02-19T04:20:21.048Z,8.04
2019-02-19T04:22:55.853Z,7.99
2019-02-19T04:25:26.101Z,7.89
2019-02-19T04:27:56.358Z,7.81
2019-02-19T04:30:27.089Z,7.74
2019-02-19T04:32:57.657Z,7.68
2019-02-19T04:35:27.963Z,7.63
2019-02-19T04:37:58.938Z,7.63
2019-02-19T04:40:29.563Z,7.63
2019-02-19T04:43:00.040Z,7.65
2019-02-19T04:45:31.332Z,7.63
2019-02-19T04:48:03.030Z,7.60
2019-02-19T04:50:35.368Z,7.59
2019-02-19T04:53:05.755Z,7.58
2019-02-19T04:55:36.686Z,7.58
2019-02-19T04:58:07.506Z,7.59
2019-02-19T05:00:37.818Z,7.62
2019-02-19T05:03:08.225Z,7.63
2019-02-19T05:05:38.598Z,7.61
2019-02-19T05:08:09.633Z,7.61
2019-02-19T05:10:39.916Z,7.60
2019-02-19T05:13:10.231Z,7.56
2019-02-19T05:15:41.105Z,7.56
2019-02-19T05:18:11.604Z,7.56
2019-02-19T05:20:42.178Z,7.53
2019-02-19T05:23:12.953Z,7.50
2019-02-19T05:25:44.244Z,7.46
2019-02-19T05:28:14.849Z,7.48
2019-02-19T05:30:45.198Z,7.44
2019-02-19T05:33:15.885Z,7.45
2019-02-19T05:35:58.373Z,7.45
2019-02-19T05:38:28.662Z,7.42
2019-02-19T05:40:58.905Z,7.44
2019-02-19T05:43:29.210Z,7.48
2019-02-19T05:45:59.600Z,7.53
2019-02-19T05:48:30.109Z,7.53
2019-02-19T05:51:01.600Z,7.55
2019-02-19T05:53:32.006Z,7.59
2019-02-19T05:56:02.898Z,7.59
2019-02-19T05:58:33.597Z,7.56
2019-02-19T06:01:04.078Z,7.55
2019-02-19T06:03:34.570Z,7.57
2019-02-19T06:06:05.017Z,7.54
2019-02-19T06:08:35.735Z,7.54
2019-02-19T06:11:06.223Z,7.59
2019-02-19T06:13:36.932Z,7.58
2019-02-19T06:16:07.981Z,7.56
2019-02-19T06:18:38.481Z,7.53
2019-02-19T06:21:09.058Z,7.53
2019-02-19T06:23:40.000Z,7.48
2019-02-19T06:26:10.632Z,7.50
2019-02-19T06:28:41.152Z,7.49
2019-02-19T06:31:13.319Z,7.53
2019-02-19T06:33:44.162Z,7.53
2019-02-19T06:36:21.229Z,7.56
2019-02-19T06:38:54.384Z,7.53
2019-02-19T06:41:28.123Z,7.51
2019-02-19T06:43:59.032Z,7.48
2019-02-19T06:46:30.479Z,7.46
2019-02-19T06:49:00.785Z,7.44
2019-02-19T06:51:31.371Z,7.45
2019-02-19T06:54:02.373Z,7.45
2019-02-19T06:56:33.254Z,7.41
2019-02-19T06:59:03.906Z,7.41
2019-02-19T07:02:08.217Z,7.44
2019-02-19T07:04:42.539Z,7.47
2019-02-19T07:07:13.548Z,7.48
2019-02-19T07:09:44.179Z,7.52
2019-02-19T07:12:14.821Z,7.56
2019-02-19T07:14:45.668Z,7.55
2019-02-19T07:17:16.084Z,7.53
2019-02-19T07:19:46.476Z,7.55
2019-02-19T07:22:17.806Z,7.56
2019-02-19T07:24:48.220Z,7.57
2019-02-19T07:27:18.986Z,7.55
2019-02-19T07:29:49.652Z,7.53
2019-02-19T07:32:20.049Z,7.55
2019-02-19T07:34:50.270Z,7.55
2019-02-19T07:37:20.977Z,7.55
2019-02-19T07:39:51.453Z,7.57
2019-02-19T07:42:21.874Z,7.61
2019-02-19T07:44:52.314Z,7.64
2019-02-19T07:47:24.817Z,7.65
2019-02-19T07:49:55.458Z,7.67
2019-02-19T07:52:27.372Z,7.68
2019-02-19T07:54:57.943Z,7.63
2019-02-19T07:57:28.440Z,7.61
2019-02-19T07:59:59.098Z,7.61
2019-02-19T08:02:29.834Z,7.62
2019-02-19T08:05:01.040Z,7.62
2019-02-19T08:07:31.385Z,7.67
2019-02-19T08:10:01.850Z,7.61
2019-02-19T08:12:32.478Z,7.63
2019-02-19T08:15:03.857Z,7.60
2019-02-19T08:17:34.238Z,7.62
2019-02-19T08:20:04.793Z,7.58
2019-02-19T08:22:35.644Z,7.58
2019-02-19T08:25:06.534Z,7.57
2019-02-19T08:27:36.910Z,7.58
2019-02-19T08:30:07.599Z,7.58
2019-02-19T08:32:37.997Z,7.61
2019-02-19T08:35:08.506Z,7.64
2019-02-19T08:37:39.212Z,7.67
2019-02-19T08:40:09.737Z,7.73
2019-02-19T08:42:40.085Z,7.74
2019-02-19T08:45:10.962Z,7.76
2019-02-19T08:47:42.931Z,7.74
2019-02-19T08:50:13.723Z,7.77
2019-02-19T08:52:45.081Z,7.84
2019-02-19T08:55:15.454Z,7.87
2019-02-19T08:57:46.113Z,7.91
2019-02-19T09:00:17.604Z,7.94
2019-02-19T09:02:50.024Z,8.09
2019-02-19T09:05:20.276Z,8.14
2019-02-19T09:07:51.083Z,8.14
2019-02-19T09:10:22.710Z,8.17
2019-02-19T09:12:52.996Z,8.14
2019-02-19T09:15:23.565Z,8.08
2019-02-19T09:17:53.875Z,8.07
2019-02-19T09:20:24.224Z,8.20
2019-02-19T09:22:54.590Z,8.22
2019-02-19T09:25:24.886Z,8.11
2019-02-19T09:27:55.277Z,8.07
2019-02-19T09:30:25.797Z,8.09
2019-02-19T09:32:56.928Z,8.09
2019-02-19T09:35:27.614Z,8.07
2019-02-19T09:37:58.029Z,8.04
2019-02-19T09:40:28.962Z,8.06
2019-02-19T09:42:59.379Z,8.10
2019-02-19T09:45:30.156Z,8.14
2019-02-19T09:48:01.486Z,8.17
2019-02-19T09:50:32.328Z,8.14
2019-02-19T09:53:04.163Z,8.15
2019-02-19T09:55:34.728Z,8.23
2019-02-19T09:58:05.322Z,8.28
2019-02-19T10:00:36.548Z,8.26
2019-02-19T10:03:06.872Z,8.21
2019-02-19T10:05:37.428Z,8.15
2019-02-19T10:08:08.023Z,8.09
2019-02-19T10:10:39.628Z,8.10
2019-02-19T10:13:10.011Z,8.04
2019-02-19T10:15:40.361Z,7.99
2019-02-19T10:18:10.718Z,7.94
2019-02-19T10:20:41.029Z,7.86
2019-02-19T10:37:07.310Z,7.97
2019-02-19T10:39:37.611Z,7.94
2019-02-19T10:42:08.143Z,7.93
2019-02-19T10:44:38.364Z,7.81
2019-02-19T10:47:10.362Z,7.71
2019-02-19T10:50:01.734Z,7.66
2019-02-19T10:53:24.475Z,7.61
2019-02-19T10:56:21.608Z,7.59
2019-02-19T10:59:20.330Z,7.57
2019-02-19T11:01:50.811Z,7.56
2019-02-19T11:04:21.351Z,7.57
2019-02-19T11:06:51.629Z,7.59
2019-02-19T11:09:22.258Z,7.64
2019-02-19T11:11:52.611Z,7.66
2019-02-19T11:14:22.879Z,7.65
2019-02-19T11:17:20.431Z,7.55
2019-02-19T11:20:03.705Z,7.43
2019-02-19T11:22:34.060Z,7.38
2019-02-19T11:25:11.178Z,7.37
2019-02-19T11:27:43.660Z,7.38
2019-02-19T11:30:29.738Z,7.35
2019-02-19T11:33:09.111Z,7.29
2019-02-19T11:35:46.774Z,7.31
2019-02-19T11:38:42.595Z,7.27
2019-02-19T11:41:30.792Z,7.23
2019-02-19T11:51:55.680Z,7.10
2019-02-19T11:54:32.658Z,7.03
2019-02-19T11:57:17.717Z,7.05
2019-02-19T12:03:13.272Z,7.04
2019-02-19T12:05:43.802Z,7.04
2019-02-19T12:08:14.226Z,7.09
2019-02-19T12:10:44.653Z,7.16
2019-02-19T12:13:14.905Z,7.21
2019-02-19T12:15:45.310Z,7.26
2019-02-19T12:18:15.754Z,7.29
2019-02-19T12:20:46.183Z,7.33
2019-02-19T12:23:16.749Z,7.40
2019-02-19T12:25:47.286Z,7.44
2019-02-19T12:28:17.831Z,7.47
2019-02-19T12:30:48.079Z,7.47
2019-02-19T12:33:19.200Z,7.47
2019-02-19T12:35:49.672Z,7.45
2019-02-19T12:38:19.997Z,7.47
2019-02-19T12:40:50.478Z,7.45
2019-02-19T12:43:20.971Z,7.45
2019-02-19T12:45:51.478Z,7.44
2019-02-19T12:48:21.909Z,7.47
2019-02-19T12:50:52.394Z,7.44
2019-02-19T12:53:22.806Z,7.46
2019-02-19T12:55:53.760Z,7.53
2019-02-19T12:58:24.113Z,7.58
2019-02-19T13:00:54.552Z,7.62
2019-02-19T13:03:25.122Z,7.71
2019-02-19T13:05:55.426Z,7.75
2019-02-19T13:08:25.875Z,7.77
2019-02-19T13:10:56.258Z,7.76
2019-02-19T13:13:26.890Z,7.81
2019-02-19T13:15:57.386Z,7.86
2019-02-19T13:18:27.839Z,7.95
2019-02-19T13:20:58.312Z,8.02
2019-02-19T13:23:28.634Z,8.13
2019-02-19T13:25:58.958Z,8.15
2019-02-19T13:28:29.260Z,8.19
2019-02-19T13:30:59.515Z,8.22
2019-02-19T13:33:30.014Z,8.30
2019-02-19T13:36:00.389Z,8.37
2019-02-19T13:38:31.743Z,8.30
2019-02-19T13:41:02.106Z,8.25
2019-02-19T13:43:32.398Z,8.28
2019-02-19T13:46:03.097Z,8.28
2019-02-19T13:48:33.535Z,8.25
2019-02-19T13:51:04.338Z,8.26
2019-02-19T13:53:42.259Z,8.22
2019-02-19T13:56:12.784Z,8.15
2019-02-19T13:58:43.075Z,8.24
2019-02-19T14:01:14.219Z,8.29
2019-02-19T14:03:45.818Z,8.33
2019-02-19T14:06:16.211Z,8.36
2019-02-19T14:08:46.871Z,8.38
2019-02-19T14:11:19.971Z,8.27
2019-02-19T14:14:08.717Z,8.24
2019-02-19T14:16:52.268Z,8.22
2019-02-19T14:19:41.641Z,8.13
2019-02-19T14:22:33.933Z,8.16
2019-02-19T14:25:23.554Z,8.13
2019-02-19T14:28:12.547Z,8.13
2019-02-19T14:31:00.939Z,8.16
2019-02-19T14:33:53.323Z,8.23
2019-02-19T14:36:35.437Z,8.35
2019-02-19T14:39:37.982Z,8.49
2019-02-19T14:42:27.535Z,8.49
2019-02-19T14:45:17.077Z,8.47
2019-02-19T14:48:24.855Z,8.42
2019-02-19T14:51:03.296Z,8.41
2019-02-19T14:53:52.822Z,8.39
2019-02-19T14:56:40.470Z,8.42
2019-02-19T14:59:22.908Z,8.38
2019-02-19T15:02:22.083Z,8.35
2019-02-19T15:05:29.254Z,8.39
2019-02-19T15:08:25.195Z,8.40
2019-02-19T15:11:23.239Z,8.46
2019-02-19T15:14:07.581Z,8.49
2019-02-19T15:16:56.976Z,8.47
2019-02-19T15:19:39.847Z,8.49
2019-02-19T15:22:17.604Z,8.39
2019-02-19T15:25:05.330Z,8.39
2019-02-19T15:27:45.843Z,8.33
2019-02-19T15:30:42.948Z,8.20
2019-02-19T15:33:30.717Z,8.02
2019-02-19T15:36:20.355Z,7.88
2019-02-19T15:39:15.679Z,7.76
2019-02-19T15:42:25.160Z,7.72
2019-02-19T15:45:17.857Z,7.70
2019-02-19T15:47:58.584Z,7.71
2019-02-19T15:50:50.200Z,7.71
2019-02-19T15:53:29.672Z,7.74
2019-02-19T15:56:18.342Z,7.80
2019-02-19T15:59:16.859Z,7.83
2019-02-19T16:02:15.413Z,7.82
2019-02-19T16:05:03.311Z,7.78
2019-02-19T16:07:52.690Z,7.73
2019-02-19T16:10:31.619Z,7.71
2019-02-19T16:13:13.694Z,7.69
2019-02-19T16:15:53.149Z,7.67
2019-02-19T16:18:38.210Z,7.66
2019-02-19T16:21:27.495Z,7.64
2019-02-19T16:24:16.928Z,7.65
2019-02-19T16:27:05.760Z,7.63
2019-02-19T16:29:57.574Z,7.61
2019-02-19T16:32:35.382Z,7.60
2019-02-19T16:35:32.827Z,7.62
2019-02-19T16:38:19.291Z,7.63
2019-02-19T16:41:26.802Z,7.58
2019-02-19T16:44:19.107Z,7.60
2019-02-19T16:47:13.218Z,7.58
2019-02-19T16:49:56.022Z,7.59
2019-02-19T16:52:51.487Z,7.59
2019-02-19T16:55:41.100Z,7.59
2019-02-19T16:58:36.268Z,7.61
2019-02-19T17:01:25.746Z,7.59
2019-02-19T17:04:19.031Z,7.56
2019-02-19T17:07:06.827Z,7.44
2019-02-19T17:09:46.581Z,7.38
2019-02-19T17:12:27.543Z,7.23
2019-02-19T17:15:35.219Z,7.05
2019-02-19T17:18:24.530Z,6.93
2019-02-19T17:21:14.028Z,6.79
2019-02-19T17:24:12.368Z,6.72
2019-02-19T17:27:02.050Z,6.69
2019-02-19T17:29:40.827Z,6.67
2019-02-19T17:32:34.288Z,6.56
2019-02-19T17:35:23.944Z,6.52
2019-02-19T17:38:15.328Z,6.49
2019-02-19T17:41:13.157Z,6.50
2019-02-19T17:43:58.679Z,6.51
2019-02-19T17:47:00.788Z,6.53
2019-02-19T17:49:40.963Z,6.54
2019-02-19T17:52:26.731Z,6.55
2019-02-19T17:55:12.476Z,6.58
2019-02-19T17:57:59.705Z,6.59
2019-02-19T18:00:51.770Z,6.60
2019-02-19T18:03:41.248Z,6.63
2019-02-19T18:06:36.634Z,6.66
2019-02-19T18:09:12.600Z,6.72
2019-02-19T18:12:01.947Z,6.78
2019-02-19T18:15:10.429Z,6.82
2019-02-19T18:18:02.770Z,6.87
2019-02-19T18:20:33.526Z,6.90
2019-02-19T18:23:04.155Z,6.97
2019-02-19T18:25:34.405Z,7.03
2019-02-19T18:28:04.655Z,7.04
2019-02-19T18:30:34.918Z,7.05
2019-02-19T18:33:05.306Z,7.05
2019-02-19T18:35:35.696Z,7.07
2019-02-19T18:38:06.025Z,7.10
2019-02-19T18:40:36.497Z,7.15
2019-02-19T18:43:06.927Z,7.13
2019-02-19T18:45:37.582Z,7.13
2019-02-19T18:48:07.903Z,7.08
2019-02-19T18:50:38.538Z,7.05
2019-02-19T18:53:08.815Z,7.05
2019-02-19T18:55:39.214Z,7.00
2019-02-19T18:58:09.509Z,6.98
2019-02-19T19:00:39.892Z,6.93
2019-02-19T19:03:10.372Z,6.92
2019-02-19T19:05:40.615Z,6.97
2019-02-19T19:08:11.057Z,7.03
2019-02-19T19:10:42.157Z,7.04
2019-02-19T19:13:12.517Z,7.06
2019-02-19T19:15:42.821Z,7.06
2019-02-19T19:18:13.208Z,7.08
2019-02-19T19:20:43.507Z,7.08
2019-02-19T19:23:13.825Z,7.07
2019-02-19T19:25:44.160Z,7.06
2019-02-19T19:28:14.567Z,7.08
2019-02-19T19:30:45.204Z,7.08
2019-02-19T19:33:16.178Z,7.09
2019-02-19T19:35:46.429Z,7.11
2019-02-19T19:38:16.708Z,7.13
2019-02-19T19:40:47.280Z,7.12
2019-02-19T19:43:18.663Z,7.10
2019-02-19T19:45:48.994Z,7.10
2019-02-19T19:48:19.260Z,7.06
2019-02-19T19:50:49.614Z,7.04
2019-02-19T19:53:20.893Z,7.03
2019-02-19T19:55:51.370Z,7.03
2019-02-19T19:58:21.617Z,7.04
2019-02-19T20:00:52.239Z,6.98
2019-02-19T20:03:22.768Z,6.97
2019-02-19T20:05:53.180Z,6.94
2019-02-19T20:08:23.443Z,6.93
2019-02-19T20:10:53.777Z,6.90
2019-02-19T20:13:24.017Z,6.90
2019-02-19T20:15:54.611Z,6.88
2019-02-19T20:18:25.263Z,6.90
2019-02-19T20:20:55.485Z,6.91
2019-02-19T20:23:26.014Z,6.89
2019-02-19T20:25:56.344Z,6.91
2019-02-19T20:28:27.058Z,6.88
2019-02-19T20:30:57.489Z,6.87
2019-02-19T20:33:28.182Z,6.92
2019-02-19T20:35:58.429Z,6.94
2019-02-19T20:38:29.454Z,6.97
2019-02-19T20:40:59.774Z,6.98
2019-02-19T20:43:30.154Z,7.00
2019-02-19T20:46:00.522Z,7.04
2019-02-19T20:48:31.501Z,7.06
2019-02-19T20:51:01.820Z,7.06
2019-02-19T20:53:35.901Z,7.07
2019-02-19T20:56:08.837Z,7.09
2019-02-19T20:58:42.081Z,7.11
2019-02-19T21:01:17.533Z,7.09
2019-02-19T21:04:14.186Z,7.11
2019-02-19T21:07:23.873Z,7.09
2019-02-19T21:10:21.776Z,7.08
2019-02-19T21:12:56.693Z,7.05
2019-02-19T21:15:26.934Z,7.07
2019-02-19T21:17:57.318Z,7.08
2019-02-19T21:20:27.888Z,7.07
2019-02-19T21:22:58.548Z,7.07
2019-02-19T21:25:30.947Z,7.10
2019-02-19T21:28:01.263Z,7.11
2019-02-19T21:30:31.724Z,7.11
2019-02-19T21:33:04.075Z,7.14
2019-02-19T21:35:35.444Z,7.15
2019-02-19T21:38:06.562Z,7.15
2019-02-19T21:40:37.018Z,7.13
2019-02-19T21:43:07.396Z,7.15
2019-02-19T21:45:37.641Z,7.14
2019-02-19T21:48:07.942Z,7.14
2019-02-19T21:50:39.361Z,7.11
2019-02-19T21:53:09.948Z,7.12
2019-02-19T21:55:41.039Z,7.13
2019-02-19T21:58:11.663Z,7.12
2019-02-19T22:00:42.019Z,7.14
2019-02-19T22:03:12.466Z,7.10
2019-02-19T22:05:43.079Z,7.09
2019-02-19T22:08:13.397Z,7.12
2019-02-19T22:10:43.741Z,7.15
2019-02-19T22:13:14.354Z,7.13
2019-02-19T22:15:44.591Z,7.12
2019-02-19T22:18:14.998Z,7.13
2019-02-19T22:21:04.579Z,7.09
2019-02-19T22:23:34.871Z,7.06
2019-02-19T22:26:05.374Z,7.06
2019-02-19T22:28:35.792Z,7.06
2019-02-19T22:31:06.071Z,7.07
2019-02-19T22:33:36.929Z,7.08
2019-02-19T22:36:14.310Z,7.12
2019-02-19T22:38:44.960Z,7.13
2019-02-19T22:41:15.393Z,7.13
2019-02-19T22:43:45.736Z,7.19
2019-02-19T22:46:16.051Z,7.22
2019-02-19T22:48:46.474Z,7.23
2019-02-19T22:51:16.829Z,7.25
2019-02-19T22:53:56.033Z,7.26
2019-02-19T22:56:38.559Z,7.25
2019-02-19T22:59:09.252Z,7.27
2019-02-19T23:01:45.720Z,7.28
2019-02-19T23:04:16.026Z,7.26
2019-02-19T23:06:46.433Z,7.23
2019-02-19T23:09:16.776Z,7.20
2019-02-19T23:11:47.078Z,7.16
2019-02-19T23:14:17.504Z,7.18
2019-02-19T23:16:47.853Z,7.20
2019-02-19T23:19:18.131Z,7.21
2019-02-19T23:21:48.404Z,7.19
2019-02-19T23:24:19.055Z,7.18
2019-02-19T23:26:49.386Z,7.21
2019-02-19T23:29:20.024Z,7.22
2019-02-19T23:31:50.245Z,7.22
2019-02-19T23:34:20.487Z,7.20
2019-02-19T23:37:00.564Z,7.24
2019-02-19T23:39:30.930Z,7.22
2019-02-19T23:42:01.326Z,7.23
2019-02-19T23:44:31.571Z,7.26
2019-02-19T23:47:01.879Z,7.27
2019-02-19T23:49:32.171Z,7.26
2019-02-19T23:52:02.746Z,7.26
2019-02-19T23:54:34.430Z,7.21
2019-02-19T23:57:05.115Z,7.17
2019-02-19T23:59:35.742Z,7.16
